aviador You're here:

KMBY Decoded Metar

in
Report Time2018-06-25 11:35:00
UTC Time2018-06-25 11:58:27
Flight Rules lifr LIFR
Wind100° at 06 kt
W.Decomp.*RWY 13: 5.2 kt HW 3 kt LCW
RWY 05: 3.9 kt HW 4.6 kt RCW
W.Rank100° ranks 29
Current wind is below 100° avg. (6.9)
Visibility4023 m
Phenomena:Mist
Clouds:Overcast 002 Hf
Expected CloudBase > 800 ft AGL from Temp-Dew spread
Ceiling200 ft
Temp20°C
Dew Point18°C (88% RH)
QNH1016 hPa
Raw Report
KMBY 251135Z AUTO 10006KT 2 1/2SM BR OVC002 20/18 A2999 RMK
AO2=

Extra information for KMBY:More info

Social comments